createdAt,value
2023-05-17T00:00:09.882Z,15.78
2023-05-17T00:02:12.045Z,15.66
2023-05-17T00:04:14.103Z,15.73
2023-05-17T00:06:16.219Z,15.70
2023-05-17T00:08:18.352Z,15.69
2023-05-17T00:10:20.433Z,15.64
2023-05-17T00:12:22.482Z,15.63
2023-05-17T00:14:24.496Z,15.55
2023-05-17T00:16:26.640Z,15.58
2023-05-17T00:18:28.837Z,15.55
2023-05-17T00:20:31.091Z,15.54
2023-05-17T00:22:33.138Z,15.55
2023-05-17T00:24:35.177Z,15.51
2023-05-17T00:26:37.231Z,15.42
2023-05-17T00:28:39.198Z,15.46
2023-05-17T00:30:41.894Z,15.43
2023-05-17T00:32:45.885Z,15.35
2023-05-17T00:34:48.102Z,15.34
2023-05-17T00:36:50.112Z,15.26
2023-05-17T00:38:52.155Z,15.22
2023-05-17T00:40:54.464Z,15.29
2023-05-17T00:42:56.518Z,15.22
2023-05-17T00:44:58.519Z,15.22
2023-05-17T00:47:00.494Z,15.27
2023-05-17T00:49:02.501Z,15.19
2023-05-17T00:51:04.778Z,15.24
2023-05-17T00:53:07.117Z,15.26
2023-05-17T00:55:09.629Z,15.17
2023-05-17T00:57:11.812Z,15.21
2023-05-17T00:59:14.565Z,15.16
2023-05-17T01:01:16.887Z,15.14
2023-05-17T01:03:19.315Z,15.07
2023-05-17T01:05:21.421Z,15.16
2023-05-17T01:07:23.714Z,15.12
2023-05-17T01:09:25.772Z,15.10
2023-05-17T01:11:34.040Z,15.05
2023-05-17T01:13:42.512Z,15.01
2023-05-17T01:15:53.745Z,14.93
2023-05-17T01:18:00.515Z,14.99
2023-05-17T01:20:12.874Z,14.96
2023-05-17T01:22:18.536Z,14.78
2023-05-17T01:24:22.282Z,14.89
2023-05-17T01:26:34.891Z,14.79
2023-05-17T01:28:39.158Z,14.87
2023-05-17T01:30:42.407Z,14.77
2023-05-17T01:32:45.605Z,14.69
2023-05-17T01:34:47.720Z,14.75
2023-05-17T01:36:49.779Z,14.76
2023-05-17T01:38:51.899Z,14.71
2023-05-17T01:41:00.197Z,14.66
2023-05-17T01:43:10.679Z,14.62
2023-05-17T01:45:19.587Z,14.59
2023-05-17T01:47:34.884Z,14.60
2023-05-17T01:49:40.427Z,14.50
2023-05-17T01:51:48.339Z,14.49
2023-05-17T01:53:58.484Z,14.47
2023-05-17T01:56:06.424Z,14.38
2023-05-17T01:58:11.070Z,14.39
2023-05-17T02:00:14.836Z,14.44
2023-05-17T02:02:16.947Z,14.50
2023-05-17T02:04:19.947Z,14.46
2023-05-17T02:06:22.049Z,14.44
2023-05-17T02:08:24.136Z,14.44
2023-05-17T02:10:26.137Z,14.39
2023-05-17T02:12:28.313Z,14.39
2023-05-17T02:14:30.315Z,14.38
2023-05-17T02:16:32.326Z,14.33
2023-05-17T02:18:36.087Z,14.37
2023-05-17T02:20:38.716Z,14.36
2023-05-17T02:22:40.929Z,14.38
2023-05-17T02:24:43.312Z,14.35
2023-05-17T02:26:46.330Z,14.32
2023-05-17T02:28:48.681Z,14.31
2023-05-17T02:30:51.281Z,14.25
2023-05-17T02:32:53.382Z,14.26
2023-05-17T02:34:56.014Z,14.25
2023-05-17T02:36:58.100Z,14.21
2023-05-17T02:39:00.137Z,14.25
2023-05-17T02:41:02.153Z,14.29
2023-05-17T02:43:04.142Z,14.29
2023-05-17T02:45:06.958Z,14.23
2023-05-17T02:47:09.028Z,14.18
2023-05-17T02:49:11.099Z,14.18
2023-05-17T02:51:13.155Z,14.15
2023-05-17T02:53:15.179Z,14.03
2023-05-17T02:55:17.258Z,14.10
2023-05-17T02:57:19.320Z,14.04
2023-05-17T02:59:21.353Z,14.06
2023-05-17T03:01:23.940Z,13.97
2023-05-17T03:03:26.099Z,14.08
2023-05-17T03:05:28.510Z,14.16
2023-05-17T03:07:30.953Z,14.09
2023-05-17T03:09:33.097Z,14.10
2023-05-17T03:11:35.121Z,14.06
2023-05-17T03:13:37.262Z,14.01
2023-05-17T03:15:39.332Z,14.06
2023-05-17T03:17:41.561Z,14.08
2023-05-17T03:19:43.689Z,14.03
2023-05-17T03:21:45.812Z,14.03
2023-05-17T03:23:48.251Z,13.98
2023-05-17T03:25:50.272Z,14.05
2023-05-17T03:27:52.356Z,14.08
2023-05-17T03:29:54.491Z,13.94
2023-05-17T03:31:56.524Z,14.04
2023-05-17T03:33:58.690Z,13.99
2023-05-17T03:36:00.969Z,14.02
2023-05-17T03:38:02.949Z,13.94
2023-05-17T03:40:05.683Z,13.98
2023-05-17T03:42:07.768Z,13.90
2023-05-17T03:44:09.889Z,13.88
2023-05-17T03:46:12.024Z,13.92
2023-05-17T03:48:14.034Z,13.95
2023-05-17T03:50:16.191Z,13.91
2023-05-17T03:52:18.176Z,13.87
2023-05-17T03:54:20.199Z,13.85
2023-05-17T03:56:22.373Z,13.80
2023-05-17T03:58:24.452Z,13.78
2023-05-17T04:00:26.547Z,13.77
2023-05-17T04:02:28.535Z,13.77
2023-05-17T04:04:30.955Z,13.82
2023-05-17T04:06:33.083Z,13.83
2023-05-17T04:08:36.197Z,13.80
2023-05-17T04:10:42.135Z,13.85
2023-05-17T04:12:44.243Z,13.83
2023-05-17T04:14:46.262Z,13.77
2023-05-17T04:16:48.301Z,13.81
2023-05-17T04:18:53.128Z,13.83
2023-05-17T04:20:56.353Z,13.79
2023-05-17T04:22:58.375Z,13.78
2023-05-17T04:25:00.513Z,13.78
2023-05-17T04:27:05.436Z,13.82
2023-05-17T04:29:07.580Z,13.72
2023-05-17T04:31:09.753Z,13.69
2023-05-17T04:33:14.083Z,13.66
2023-05-17T04:35:16.561Z,13.68
2023-05-17T04:37:18.537Z,13.69
2023-05-17T04:39:20.956Z,13.70
2023-05-17T04:41:22.913Z,13.65
2023-05-17T04:43:24.903Z,13.69
2023-05-17T04:45:27.707Z,13.68
2023-05-17T04:47:30.146Z,13.71
2023-05-17T04:49:32.326Z,13.64
2023-05-17T04:51:34.274Z,13.58
2023-05-17T04:53:36.314Z,13.59
2023-05-17T04:55:38.277Z,13.63
2023-05-17T04:57:40.414Z,13.51
2023-05-17T04:59:42.389Z,13.58
2023-05-17T05:01:44.353Z,13.35
2023-05-17T05:03:46.452Z,13.50
2023-05-17T05:05:48.673Z,13.55
2023-05-17T05:07:50.715Z,13.54
2023-05-17T05:09:52.698Z,13.53
2023-05-17T05:11:54.701Z,13.58
2023-05-17T05:13:56.673Z,13.53
2023-05-17T05:15:58.748Z,13.49
2023-05-17T05:18:00.966Z,13.55
2023-05-17T05:20:03.270Z,13.50
2023-05-17T05:22:05.659Z,13.48
2023-05-17T05:24:08.630Z,13.52
2023-05-17T05:26:10.706Z,13.55
2023-05-17T05:28:12.755Z,13.49
2023-05-17T05:30:22.227Z,13.58
2023-05-17T05:32:24.602Z,13.53
2023-05-17T05:34:28.732Z,13.53
2023-05-17T05:36:31.126Z,13.61
2023-05-17T05:38:33.143Z,13.64
2023-05-17T05:40:35.258Z,13.63
2023-05-17T05:42:37.573Z,13.60
2023-05-17T05:44:39.678Z,13.58
2023-05-17T05:46:41.686Z,13.61
2023-05-17T05:48:45.036Z,13.65
2023-05-17T05:50:47.127Z,13.54
2023-05-17T05:52:49.168Z,13.57
2023-05-17T05:54:51.235Z,13.60
2023-05-17T05:56:53.895Z,13.65
2023-05-17T05:58:57.850Z,13.58
2023-05-17T06:01:00.486Z,13.61
2023-05-17T06:03:02.691Z,13.60
2023-05-17T06:05:06.406Z,13.60
2023-05-17T06:07:08.604Z,13.75
2023-05-17T06:09:12.535Z,13.67
2023-05-17T06:11:15.056Z,13.73
2023-05-17T06:13:17.162Z,13.76
2023-05-17T06:15:19.284Z,13.68
2023-05-17T06:17:21.786Z,13.72
2023-05-17T06:19:24.124Z,13.76
2023-05-17T06:21:26.316Z,13.76
2023-05-17T06:23:28.481Z,13.68
2023-05-17T06:25:30.787Z,13.77
2023-05-17T06:27:34.020Z,13.78
2023-05-17T06:29:36.896Z,13.79
2023-05-17T06:31:39.145Z,13.83
2023-05-17T06:33:41.344Z,13.73
2023-05-17T06:35:55.313Z,13.81
2023-05-17T06:37:58.794Z,13.81
2023-05-17T06:40:15.047Z,13.87
2023-05-17T06:42:18.271Z,13.81
2023-05-17T06:44:20.548Z,13.88
2023-05-17T06:46:22.713Z,13.92
2023-05-17T06:48:24.976Z,13.94
2023-05-17T06:50:28.846Z,13.99
2023-05-17T06:52:31.328Z,14.04
2023-05-17T06:54:33.416Z,14.06
2023-05-17T06:56:35.699Z,13.94
2023-05-17T06:58:37.940Z,14.10
2023-05-17T07:00:40.080Z,14.12
2023-05-17T07:02:42.844Z,14.12
2023-05-17T07:04:45.151Z,14.08
2023-05-17T07:06:47.633Z,14.08
2023-05-17T07:08:49.900Z,14.11
2023-05-17T07:10:52.815Z,14.14
2023-05-17T07:12:55.062Z,14.06
2023-05-17T07:14:57.344Z,14.04
2023-05-17T07:16:59.764Z,14.18
2023-05-17T07:19:03.504Z,14.26
2023-05-17T07:21:05.749Z,14.28
2023-05-17T07:23:07.989Z,14.34
2023-05-17T07:25:10.969Z,14.31
2023-05-17T07:27:13.134Z,14.30
2023-05-17T07:29:15.449Z,14.35
2023-05-17T07:31:18.464Z,14.31
2023-05-17T07:33:20.754Z,14.43
2023-05-17T07:35:22.940Z,14.48
2023-05-17T07:37:25.350Z,14.42
2023-05-17T07:39:27.739Z,14.42
2023-05-17T07:41:30.032Z,14.49
2023-05-17T07:43:32.254Z,14.53
2023-05-17T07:45:34.617Z,14.62
2023-05-17T07:47:36.941Z,14.51
2023-05-17T07:49:39.656Z,14.46
2023-05-17T07:51:41.966Z,14.68
2023-05-17T07:53:44.344Z,14.73
2023-05-17T07:55:47.965Z,14.66
2023-05-17T07:57:54.917Z,14.86
2023-05-17T07:59:57.038Z,14.96
2023-05-17T08:01:59.161Z,14.98
2023-05-17T08:04:07.798Z,15.01
2023-05-17T08:06:10.002Z,15.10
2023-05-17T08:08:12.237Z,15.13
2023-05-17T08:10:14.623Z,15.22
2023-05-17T08:12:16.858Z,15.30
2023-05-17T08:14:23.392Z,15.31
2023-05-17T08:16:26.674Z,15.30
2023-05-17T08:18:29.046Z,15.32
2023-05-17T08:20:31.383Z,15.44
2023-05-17T08:22:33.524Z,15.41
2023-05-17T08:24:41.654Z,15.44
2023-05-17T08:26:43.860Z,15.21
2023-05-17T08:28:47.327Z,15.29
2023-05-17T08:30:49.808Z,15.20
2023-05-17T08:32:52.447Z,15.30
2023-05-17T08:34:55.227Z,15.47
2023-05-17T08:36:57.712Z,15.56
2023-05-17T08:39:00.019Z,15.49
2023-05-17T08:41:03.403Z,15.68
2023-05-17T08:43:06.844Z,15.71
2023-05-17T08:45:10.628Z,15.82
2023-05-17T08:47:14.848Z,15.84
2023-05-17T08:49:17.567Z,15.87
2023-05-17T08:51:21.121Z,15.87
2023-05-17T08:53:24.451Z,15.89
2023-05-17T08:55:30.929Z,15.97
2023-05-17T08:57:34.776Z,16.03
2023-05-17T08:59:39.599Z,15.95
2023-05-17T09:01:44.089Z,15.98
2023-05-17T09:03:49.923Z,16.16
2023-05-17T09:05:54.795Z,16.28
2023-05-17T09:07:58.152Z,16.23
2023-05-17T09:10:00.776Z,16.33
2023-05-17T09:12:04.580Z,16.42
2023-05-17T09:14:07.718Z,16.53
2023-05-17T09:16:13.930Z,16.65
2023-05-17T09:18:19.347Z,16.76
2023-05-17T09:20:25.160Z,16.92
2023-05-17T09:22:27.358Z,16.98
2023-05-17T09:24:58.776Z,17.18
2023-05-17T09:27:10.212Z,17.25
2023-05-17T09:29:18.585Z,17.50
2023-05-17T09:31:29.300Z,17.56
2023-05-17T09:33:31.185Z,17.77
2023-05-17T09:35:35.025Z,17.89
2023-05-17T09:37:47.025Z,17.97
2023-05-17T09:39:50.187Z,18.07
2023-05-17T09:41:57.909Z,18.33
2023-05-17T09:44:16.053Z,18.32
2023-05-17T09:46:20.588Z,18.45
2023-05-17T09:48:22.797Z,18.61
2023-05-17T09:50:26.259Z,18.69
2023-05-17T09:52:32.226Z,18.69
2023-05-17T09:55:01.743Z,18.91
2023-05-17T09:57:08.004Z,19.03
2023-05-17T09:59:13.316Z,19.13
2023-05-17T10:01:17.314Z,19.13
2023-05-17T10:03:19.986Z,19.25
2023-05-17T10:05:22.831Z,19.44
2023-05-17T10:07:28.041Z,19.63
2023-05-17T10:09:35.867Z,19.82
2023-05-17T10:11:39.548Z,19.92
2023-05-17T10:13:47.741Z,19.70
2023-05-17T10:15:51.062Z,19.69
2023-05-17T10:17:54.982Z,19.75
2023-05-17T10:19:59.333Z,19.80
2023-05-17T10:24:12.569Z,20.09
2023-05-17T10:26:16.487Z,20.18
2023-05-17T10:28:20.273Z,20.24
2023-05-17T10:30:23.155Z,20.27
2023-05-17T10:32:29.152Z,20.29
2023-05-17T10:34:32.261Z,20.10
2023-05-17T10:36:34.730Z,20.36
2023-05-17T10:38:42.650Z,20.60
2023-05-17T10:40:47.641Z,20.72
2023-05-17T10:42:53.308Z,20.91
2023-05-17T10:44:55.526Z,21.02
2023-05-17T10:47:00.525Z,21.13
2023-05-17T10:49:03.996Z,20.96
2023-05-17T10:51:07.747Z,20.91
2023-05-17T10:53:11.580Z,20.96
2023-05-17T10:55:13.998Z,20.68
2023-05-17T10:57:21.145Z,20.69
2023-05-17T10:59:27.121Z,20.81
2023-05-17T11:01:35.443Z,20.83
2023-05-17T11:03:40.322Z,20.81
2023-05-17T11:05:45.007Z,21.12
2023-05-17T11:07:49.823Z,21.03
2023-05-17T11:09:56.961Z,21.20
2023-05-17T11:12:05.686Z,21.30
2023-05-17T11:14:16.907Z,21.31
2023-05-17T11:16:22.973Z,21.10
2023-05-17T11:18:34.275Z,21.16
2023-05-17T11:20:39.047Z,20.96
2023-05-17T11:22:43.779Z,20.93
2023-05-17T11:24:51.508Z,20.76
2023-05-17T11:26:56.423Z,20.61
2023-05-17T11:29:03.090Z,20.51
2023-05-17T11:31:05.635Z,20.44
2023-05-17T11:33:20.612Z,20.57
2023-05-17T11:35:30.167Z,20.54
2023-05-17T11:37:32.828Z,20.56
2023-05-17T11:39:34.989Z,20.36
2023-05-17T11:41:41.815Z,20.35
2023-05-17T11:44:01.929Z,20.28
2023-05-17T11:46:06.977Z,20.29
2023-05-17T11:48:09.785Z,20.21
2023-05-17T11:50:14.827Z,20.27
2023-05-17T11:52:17.429Z,20.03
2023-05-17T11:54:23.708Z,20.08
2023-05-17T11:56:39.394Z,20.00
2023-05-17T11:58:45.765Z,19.93
2023-05-17T12:00:54.249Z,19.82
2023-05-17T12:02:56.387Z,19.91
2023-05-17T12:04:59.217Z,19.91
2023-05-17T12:07:01.855Z,19.91
2023-05-17T12:09:06.423Z,20.01
2023-05-17T12:11:12.711Z,19.97
2023-05-17T12:13:14.846Z,19.98
2023-05-17T12:15:19.650Z,20.10
2023-05-17T12:17:28.279Z,20.08
2023-05-17T12:19:32.933Z,20.13
2023-05-17T12:21:35.544Z,20.18
2023-05-17T12:23:42.028Z,20.20
2023-05-17T12:25:44.293Z,20.27
2023-05-17T12:27:47.001Z,20.24
2023-05-17T12:29:49.258Z,20.40
2023-05-17T12:31:54.123Z,20.45
2023-05-17T12:36:15.841Z,20.53
2023-05-17T12:38:19.959Z,20.41
2023-05-17T12:40:22.214Z,20.40
2023-05-17T12:42:24.459Z,20.59
2023-05-17T12:44:34.834Z,20.45
2023-05-17T12:46:37.377Z,20.88
2023-05-17T12:48:44.392Z,21.12
2023-05-17T12:50:49.284Z,21.23
2023-05-17T12:52:51.804Z,21.11
2023-05-17T12:54:54.007Z,21.12
2023-05-17T12:56:56.809Z,21.02
2023-05-17T12:59:05.159Z,21.23
2023-05-17T13:01:11.721Z,21.19
2023-05-17T13:03:15.022Z,21.17
2023-05-17T13:05:21.909Z,21.17
2023-05-17T13:07:25.577Z,20.96
2023-05-17T13:09:31.327Z,21.28
2023-05-17T13:11:41.299Z,21.30
2023-05-17T13:13:43.952Z,21.10
2023-05-17T13:15:48.127Z,21.24
2023-05-17T13:17:50.960Z,21.03
2023-05-17T13:19:54.506Z,21.08
2023-05-17T13:21:57.322Z,20.97
2023-05-17T13:24:17.251Z,20.85
2023-05-17T13:26:20.394Z,20.69
2023-05-17T13:28:23.088Z,20.70
2023-05-17T13:30:26.448Z,20.64
2023-05-17T13:32:29.231Z,20.67
2023-05-17T13:34:31.637Z,20.61
2023-05-17T13:36:34.444Z,20.65
2023-05-17T13:38:37.001Z,20.53
2023-05-17T13:40:39.642Z,20.64
2023-05-17T13:42:42.103Z,20.73
2023-05-17T13:44:44.675Z,20.85
2023-05-17T13:46:47.229Z,20.98
2023-05-17T13:48:49.959Z,21.15
2023-05-17T13:50:53.401Z,21.42
2023-05-17T13:52:55.621Z,21.37
2023-05-17T13:54:58.128Z,21.44
2023-05-17T13:57:00.870Z,21.56
2023-05-17T13:59:03.883Z,21.76
2023-05-17T14:01:12.196Z,21.93
2023-05-17T14:03:15.477Z,22.27
2023-05-17T14:05:18.607Z,22.57
2023-05-17T14:07:20.704Z,22.68
2023-05-17T14:09:23.656Z,22.62
2023-05-17T14:11:26.369Z,23.26
2023-05-17T14:13:28.770Z,23.61
2023-05-17T14:15:31.573Z,23.76
2023-05-17T14:17:34.156Z,23.78
2023-05-17T14:19:36.951Z,23.72
2023-05-17T14:21:39.524Z,23.40
2023-05-17T14:23:41.916Z,23.23
2023-05-17T14:25:44.566Z,23.03
2023-05-17T14:27:47.566Z,22.65
2023-05-17T14:29:50.192Z,22.69
2023-05-17T14:31:52.940Z,22.48
2023-05-17T14:33:55.335Z,22.42
2023-05-17T14:35:58.191Z,22.18
2023-05-17T14:38:00.586Z,22.25
2023-05-17T14:40:06.428Z,22.05
2023-05-17T14:42:09.619Z,22.10
2023-05-17T14:44:13.468Z,22.12
2023-05-17T14:46:16.527Z,22.22
2023-05-17T14:48:19.319Z,22.28
2023-05-17T14:50:22.251Z,22.34
2023-05-17T14:52:25.067Z,22.20
2023-05-17T14:54:32.484Z,22.56
2023-05-17T14:56:35.145Z,22.62
2023-05-17T14:58:38.325Z,22.78
2023-05-17T15:00:42.172Z,23.04
2023-05-17T15:02:44.975Z,23.23
2023-05-17T15:04:47.957Z,23.53
2023-05-17T15:06:51.551Z,23.70
2023-05-17T15:08:55.209Z,23.84
2023-05-17T15:10:58.580Z,23.49
2023-05-17T15:13:00.926Z,23.93
2023-05-17T15:15:03.660Z,24.00
2023-05-17T15:17:06.499Z,24.28
2023-05-17T15:19:09.145Z,24.41
2023-05-17T15:21:12.091Z,24.58
2023-05-17T15:23:14.831Z,24.85
2023-05-17T15:25:17.686Z,24.18
2023-05-17T15:27:20.109Z,24.01
2023-05-17T15:29:22.839Z,24.11
2023-05-17T15:31:25.718Z,23.86
2023-05-17T15:33:28.681Z,23.66
2023-05-17T15:35:31.837Z,23.13
2023-05-17T15:37:34.490Z,23.11
2023-05-17T15:39:37.146Z,22.89
2023-05-17T15:41:40.856Z,22.76
2023-05-17T15:43:43.900Z,22.72
2023-05-17T15:45:46.870Z,22.35
2023-05-17T15:47:50.372Z,22.31
2023-05-17T15:49:53.453Z,22.28
2023-05-17T15:51:59.598Z,21.96
2023-05-17T15:54:02.670Z,21.84
2023-05-17T15:56:05.450Z,21.60
2023-05-17T15:58:10.038Z,21.53
2023-05-17T16:00:25.643Z,21.47
2023-05-17T16:02:28.833Z,21.35
2023-05-17T16:04:31.714Z,20.84
2023-05-17T16:06:36.490Z,20.97
2023-05-17T16:08:39.561Z,20.92
2023-05-17T16:10:42.432Z,20.84
2023-05-17T16:12:45.199Z,20.74
2023-05-17T16:14:48.342Z,20.65
2023-05-17T16:16:53.917Z,20.55
2023-05-17T16:18:58.953Z,20.67
2023-05-17T16:21:04.280Z,20.66
2023-05-17T16:23:07.398Z,20.74
2023-05-17T16:25:09.921Z,20.57
2023-05-17T16:27:13.064Z,20.34
2023-05-17T16:29:17.610Z,20.52
2023-05-17T16:31:21.106Z,20.55
2023-05-17T16:33:24.104Z,20.23
2023-05-17T16:35:28.139Z,20.17
2023-05-17T16:37:31.305Z,20.34
2023-05-17T16:39:33.929Z,20.34
2023-05-17T16:41:38.111Z,20.30
2023-05-17T16:43:40.886Z,20.26
2023-05-17T16:45:45.549Z,19.73
2023-05-17T16:47:48.322Z,19.88
2023-05-17T16:49:51.872Z,20.04
2023-05-17T16:51:55.659Z,20.00
2023-05-17T16:54:00.453Z,19.82
2023-05-17T16:56:03.229Z,19.79
2023-05-17T16:58:06.701Z,19.85
2023-05-17T17:00:10.851Z,19.69
2023-05-17T17:02:13.738Z,19.75
2023-05-17T17:04:21.514Z,19.66
2023-05-17T17:06:24.193Z,19.54
2023-05-17T17:08:27.377Z,19.59
2023-05-17T17:10:39.766Z,19.52
2023-05-17T17:12:42.826Z,19.41
2023-05-17T17:14:59.638Z,19.42
2023-05-17T17:17:20.277Z,19.33
2023-05-17T17:19:38.435Z,19.30
2023-05-17T17:21:43.314Z,19.41
2023-05-17T17:24:15.214Z,19.14
2023-05-17T17:26:24.382Z,19.17
2023-05-17T17:28:27.524Z,19.21
2023-05-17T17:30:42.352Z,19.19
2023-05-17T17:32:45.120Z,19.11
2023-05-17T17:34:48.157Z,19.11
2023-05-17T17:36:51.380Z,18.98
2023-05-17T17:38:53.136Z,19.07
2023-05-17T17:40:55.829Z,18.80
2023-05-17T17:42:58.571Z,18.83
2023-05-17T17:45:17.851Z,19.00
2023-05-17T17:47:30.406Z,18.88
2023-05-17T17:49:33.703Z,18.85
2023-05-17T17:51:36.419Z,18.73
2023-05-17T17:53:49.178Z,18.93
2023-05-17T17:55:52.079Z,18.35
2023-05-17T17:57:54.698Z,18.40
2023-05-17T17:59:58.474Z,18.37
2023-05-17T18:02:01.757Z,18.49
2023-05-17T18:04:06.552Z,18.41
2023-05-17T18:06:08.927Z,18.28
2023-05-17T18:08:11.159Z,18.17
2023-05-17T18:10:13.808Z,18.20
2023-05-17T18:12:16.801Z,18.18
2023-05-17T18:14:19.986Z,18.27
2023-05-17T18:16:22.335Z,18.38
2023-05-17T18:18:24.862Z,18.14
2023-05-17T18:20:27.627Z,18.16
2023-05-17T18:22:30.386Z,17.94
2023-05-17T18:24:32.914Z,17.95
2023-05-17T18:26:35.588Z,17.98
2023-05-17T18:28:42.262Z,17.93
2023-05-17T18:30:45.546Z,17.99
2023-05-17T18:32:47.936Z,18.05
2023-05-17T18:34:50.214Z,18.09
2023-05-17T18:36:52.377Z,18.00
2023-05-17T18:38:58.766Z,18.21
2023-05-17T18:41:01.179Z,18.26
2023-05-17T18:43:03.412Z,18.32
2023-05-17T18:45:06.855Z,18.32
2023-05-17T18:47:09.234Z,18.21
2023-05-17T18:49:12.681Z,18.06
2023-05-17T18:51:16.227Z,18.14
2023-05-17T18:53:18.777Z,18.06
2023-05-17T18:55:21.740Z,18.09
2023-05-17T18:57:24.234Z,17.79
2023-05-17T18:59:26.692Z,17.97
2023-05-17T19:01:29.449Z,17.89
2023-05-17T19:03:32.221Z,17.92
2023-05-17T19:05:34.499Z,17.88
2023-05-17T19:07:36.947Z,17.89
2023-05-17T19:09:39.106Z,17.94
2023-05-17T19:11:41.494Z,17.79
2023-05-17T19:13:44.225Z,17.88
2023-05-17T19:15:46.488Z,18.03
2023-05-17T19:17:48.828Z,17.99
2023-05-17T19:19:51.333Z,17.94
2023-05-17T19:21:53.894Z,17.93
2023-05-17T19:23:58.640Z,17.83
2023-05-17T19:26:01.022Z,17.79
2023-05-17T19:28:03.439Z,17.87
2023-05-17T19:30:07.903Z,17.69
2023-05-17T19:32:10.264Z,17.58
2023-05-17T19:34:12.729Z,17.69
2023-05-17T19:36:15.224Z,17.62
2023-05-17T19:38:18.362Z,17.68
2023-05-17T19:40:22.494Z,17.67
2023-05-17T19:42:25.128Z,17.61
2023-05-17T19:44:27.415Z,17.62
2023-05-17T19:46:29.646Z,17.57
2023-05-17T19:48:42.622Z,17.54
2023-05-17T19:50:44.847Z,17.38
2023-05-17T19:52:47.756Z,17.34
2023-05-17T19:54:50.032Z,17.24
2023-05-17T19:56:52.205Z,17.08
2023-05-17T19:58:54.483Z,17.09
2023-05-17T20:00:56.847Z,17.00
2023-05-17T20:02:59.199Z,16.94
2023-05-17T20:05:03.830Z,16.64
2023-05-17T20:07:06.396Z,16.71
2023-05-17T20:09:08.596Z,16.65
2023-05-17T20:11:11.565Z,16.77
2023-05-17T20:13:13.857Z,16.64
2023-05-17T20:15:16.503Z,16.70
2023-05-17T20:17:19.908Z,16.80
2023-05-17T20:19:22.220Z,16.68
2023-05-17T20:21:26.698Z,16.72
2023-05-17T20:23:29.039Z,16.83
2023-05-17T20:25:31.410Z,16.65
2023-05-17T20:27:33.757Z,16.56
2023-05-17T20:29:36.340Z,16.37
2023-05-17T20:31:38.860Z,16.61
2023-05-17T20:33:41.567Z,16.44
2023-05-17T20:35:43.964Z,16.42
2023-05-17T20:37:46.138Z,16.34
2023-05-17T20:39:48.430Z,16.36
2023-05-17T20:41:50.661Z,16.50
2023-05-17T20:43:53.543Z,16.39
2023-05-17T20:45:55.915Z,16.43
2023-05-17T20:47:58.249Z,16.40
2023-05-17T20:50:00.547Z,16.59
2023-05-17T20:52:03.620Z,16.45
2023-05-17T20:54:06.537Z,16.49
2023-05-17T20:56:08.804Z,16.27
2023-05-17T20:58:11.579Z,16.35
2023-05-17T21:00:17.343Z,16.39
2023-05-17T21:02:20.112Z,16.52
2023-05-17T21:04:22.457Z,16.53
2023-05-17T21:06:27.413Z,16.52
2023-05-17T21:08:29.570Z,16.54
2023-05-17T21:10:32.121Z,16.33
2023-05-17T21:12:35.803Z,16.26
2023-05-17T21:14:38.000Z,16.26
2023-05-17T21:16:40.312Z,16.24
2023-05-17T21:18:45.049Z,16.39
2023-05-17T21:20:47.752Z,16.47
2023-05-17T21:22:49.971Z,16.19
2023-05-17T21:24:52.878Z,16.30
2023-05-17T21:26:55.231Z,16.26
2023-05-17T21:28:57.404Z,16.31
2023-05-17T21:30:59.886Z,16.39
2023-05-17T21:33:02.439Z,16.36
2023-05-17T21:35:05.032Z,16.20
2023-05-17T21:37:07.162Z,16.26
2023-05-17T21:39:09.319Z,16.02
2023-05-17T21:41:11.568Z,15.82
2023-05-17T21:43:13.631Z,15.85
2023-05-17T21:45:15.691Z,15.79
2023-05-17T21:47:20.724Z,15.86
2023-05-17T21:49:22.928Z,15.98
2023-05-17T21:51:25.092Z,15.91
2023-05-17T21:53:27.228Z,16.02
2023-05-17T21:55:40.837Z,16.02
2023-05-17T21:57:51.351Z,16.02
2023-05-17T21:59:53.562Z,16.04
2023-05-17T22:01:55.814Z,15.93
2023-05-17T22:04:01.305Z,15.88
2023-05-17T22:06:04.301Z,16.04
2023-05-17T22:08:06.553Z,15.97
2023-05-17T22:10:10.024Z,15.97
2023-05-17T22:12:12.467Z,15.91
2023-05-17T22:14:14.576Z,16.02
2023-05-17T22:16:17.188Z,15.87
2023-05-17T22:18:19.641Z,15.93
2023-05-17T22:20:23.994Z,15.71
2023-05-17T22:22:27.005Z,15.80
2023-05-17T22:24:29.181Z,15.75
2023-05-17T22:26:31.489Z,15.59
2023-05-17T22:28:34.035Z,15.56
2023-05-17T22:30:36.459Z,15.48
2023-05-17T22:32:38.726Z,15.48
2023-05-17T22:34:41.293Z,15.44
2023-05-17T22:36:43.648Z,15.30
2023-05-17T22:38:46.545Z,15.47
2023-05-17T22:40:48.538Z,15.49
2023-05-17T22:42:52.094Z,15.66
2023-05-17T22:44:54.121Z,15.72
2023-05-17T22:46:57.895Z,15.49
2023-05-17T22:48:59.994Z,15.34
2023-05-17T22:51:02.334Z,15.35
2023-05-17T22:53:06.126Z,15.33
2023-05-17T22:55:09.294Z,15.43
2023-05-17T22:57:11.636Z,15.53
2023-05-17T22:59:13.727Z,15.64
2023-05-17T23:01:15.933Z,15.53
2023-05-17T23:03:19.713Z,15.60
2023-05-17T23:05:22.407Z,15.62
2023-05-17T23:07:24.478Z,15.59
2023-05-17T23:09:27.470Z,15.47
2023-05-17T23:11:30.078Z,15.39
2023-05-17T23:13:32.164Z,15.37
2023-05-17T23:15:34.597Z,15.23
2023-05-17T23:17:36.790Z,15.25
2023-05-17T23:19:40.689Z,15.26
2023-05-17T23:21:43.444Z,15.18
2023-05-17T23:23:45.530Z,15.22
2023-05-17T23:25:48.796Z,15.16
2023-05-17T23:27:51.065Z,15.16
2023-05-17T23:29:54.266Z,15.14
2023-05-17T23:31:56.423Z,15.08
2023-05-17T23:33:58.446Z,15.04
2023-05-17T23:36:00.704Z,15.06
2023-05-17T23:38:04.378Z,15.05
2023-05-17T23:40:07.684Z,15.07
2023-05-17T23:42:10.503Z,15.20
2023-05-17T23:44:12.640Z,15.22
2023-05-17T23:46:20.042Z,15.34
2023-05-17T23:48:25.762Z,15.31
2023-05-17T23:50:27.799Z,15.10
2023-05-17T23:52:32.941Z,14.95
2023-05-17T23:54:35.015Z,14.90
2023-05-17T23:56:37.165Z,14.85
2023-05-17T23:58:39.155Z,14.90
